sensor_id;sensor_type;location;lat;lon;timestamp;temperature;humidity
1367;DHT22;16877;48.810;9.282;2023-12-20T00:02:04;14.40;86.30
1367;DHT22;16877;48.810;9.282;2023-12-20T00:04:31;14.40;86.60
1367;DHT22;16877;48.810;9.282;2023-12-20T00:06:57;14.40;86.90
1367;DHT22;16877;48.810;9.282;2023-12-20T00:09:24;14.40;86.50
1367;DHT22;16877;48.810;9.282;2023-12-20T00:11:51;14.40;86.70
1367;DHT22;16877;48.810;9.282;2023-12-20T00:14:17;14.50;87.30
1367;DHT22;16877;48.810;9.282;2023-12-20T00:16:44;14.50;86.50
1367;DHT22;16877;48.810;9.282;2023-12-20T00:19:12;14.50;86.80
1367;DHT22;16877;48.810;9.282;2023-12-20T00:21:39;14.40;86.70
1367;DHT22;16877;48.810;9.282;2023-12-20T00:24:05;14.60;87.70
1367;DHT22;16877;48.810;9.282;2023-12-20T00:26:32;15.00;89.80
1367;DHT22;16877;48.810;9.282;2023-12-20T00:28:59;14.60;87.10
1367;DHT22;16877;48.810;9.282;2023-12-20T00:31:26;14.80;86.90
1367;DHT22;16877;48.810;9.282;2023-12-20T00:33:53;14.80;87.40
1367;DHT22;16877;48.810;9.282;2023-12-20T00:36:21;14.80;87.60
1367;DHT22;16877;48.810;9.282;2023-12-20T00:38:48;14.70;87.70
1367;DHT22;16877;48.810;9.282;2023-12-20T00:41:15;14.90;87.90
1367;DHT22;16877;48.810;9.282;2023-12-20T00:43:42;14.80;87.60
1367;DHT22;16877;48.810;9.282;2023-12-20T00:46:08;14.80;87.10
1367;DHT22;16877;48.810;9.282;2023-12-20T00:48:34;14.90;86.60
1367;DHT22;16877;48.810;9.282;2023-12-20T00:51:01;15.10;87.50
1367;DHT22;16877;48.810;9.282;2023-12-20T00:53:29;14.90;87.70
1367;DHT22;16877;48.810;9.282;2023-12-20T00:55:56;15.00;88.20
1367;DHT22;16877;48.810;9.282;2023-12-20T00:58:24;15.10;87.70
1367;DHT22;16877;48.810;9.282;2023-12-20T01:00:50;15.00;87.90
1367;DHT22;16877;48.810;9.282;2023-12-20T01:03:17;15.00;87.00
1367;DHT22;16877;48.810;9.282;2023-12-20T01:05:44;14.90;87.80
1367;DHT22;16877;48.810;9.282;2023-12-20T01:08:10;14.90;87.20
1367;DHT22;16877;48.810;9.282;2023-12-20T01:10:39;15.10;88.40
1367;DHT22;16877;48.810;9.282;2023-12-20T01:13:06;15.10;88.70
1367;DHT22;16877;48.810;9.282;2023-12-20T01:15:34;15.00;88.40
1367;DHT22;16877;48.810;9.282;2023-12-20T01:18:01;14.90;88.60
1367;DHT22;16877;48.810;9.282;2023-12-20T01:20:28;15.00;88.50
1367;DHT22;16877;48.810;9.282;2023-12-20T01:22:54;15.20;88.60
1367;DHT22;16877;48.810;9.282;2023-12-20T01:25:21;15.20;88.70
1367;DHT22;16877;48.810;9.282;2023-12-20T01:27:49;15.10;89.10
1367;DHT22;16877;48.810;9.282;2023-12-20T01:30:16;15.10;89.20
1367;DHT22;16877;48.810;9.282;2023-12-20T01:32:43;15.10;88.00
1367;DHT22;16877;48.810;9.282;2023-12-20T01:35:09;15.30;88.60
1367;DHT22;16877;48.810;9.282;2023-12-20T01:37:37;14.80;88.00
1367;DHT22;16877;48.810;9.282;2023-12-20T01:40:05;15.20;88.70
1367;DHT22;16877;48.810;9.282;2023-12-20T01:42:32;15.10;88.90
1367;DHT22;16877;48.810;9.282;2023-12-20T01:45:00;15.10;89.00
1367;DHT22;16877;48.810;9.282;2023-12-20T01:47:27;15.00;88.70
1367;DHT22;16877;48.810;9.282;2023-12-20T01:49:54;15.00;88.40
1367;DHT22;16877;48.810;9.282;2023-12-20T01:52:23;15.00;88.90
1367;DHT22;16877;48.810;9.282;2023-12-20T01:54:50;15.00;88.90
1367;DHT22;16877;48.810;9.282;2023-12-20T01:57:17;15.00;88.80
1367;DHT22;16877;48.810;9.282;2023-12-20T01:59:44;14.90;89.50
1367;DHT22;16877;48.810;9.282;2023-12-20T02:02:12;15.00;90.00
1367;DHT22;16877;48.810;9.282;2023-12-20T02:04:40;14.80;90.00
1367;DHT22;16877;48.810;9.282;2023-12-20T02:07:07;14.80;89.10
1367;DHT22;16877;48.810;9.282;2023-12-20T02:09:35;15.00;89.70
1367;DHT22;16877;48.810;9.282;2023-12-20T02:12:03;15.10;90.10
1367;DHT22;16877;48.810;9.282;2023-12-20T02:14:30;15.00;90.00
1367;DHT22;16877;48.810;9.282;2023-12-20T02:16:57;15.10;90.10
1367;DHT22;16877;48.810;9.282;2023-12-20T02:19:25;15.10;90.20
1367;DHT22;16877;48.810;9.282;2023-12-20T02:22:05;15.10;90.40
1367;DHT22;16877;48.810;9.282;2023-12-20T02:24:32;15.10;90.20
1367;DHT22;16877;48.810;9.282;2023-12-20T02:26:58;15.00;90.20
1367;DHT22;16877;48.810;9.282;2023-12-20T02:29:25;14.90;90.00
1367;DHT22;16877;48.810;9.282;2023-12-20T02:31:52;15.00;90.00
1367;DHT22;16877;48.810;9.282;2023-12-20T02:34:19;15.00;90.20
1367;DHT22;16877;48.810;9.282;2023-12-20T02:36:45;14.90;90.50
1367;DHT22;16877;48.810;9.282;2023-12-20T02:39:14;15.00;90.00
1367;DHT22;16877;48.810;9.282;2023-12-20T02:41:40;15.20;90.50
1367;DHT22;16877;48.810;9.282;2023-12-20T02:44:07;15.20;90.40
1367;DHT22;16877;48.810;9.282;2023-12-20T02:46:34;15.00;90.10
1367;DHT22;16877;48.810;9.282;2023-12-20T02:49:01;15.10;90.50
1367;DHT22;16877;48.810;9.282;2023-12-20T02:51:27;15.10;90.40
1367;DHT22;16877;48.810;9.282;2023-12-20T02:53:54;15.10;90.70
1367;DHT22;16877;48.810;9.282;2023-12-20T02:56:22;15.10;90.40
1367;DHT22;16877;48.810;9.282;2023-12-20T02:58:49;15.10;90.40
1367;DHT22;16877;48.810;9.282;2023-12-20T03:01:15;15.00;90.20
1367;DHT22;16877;48.810;9.282;2023-12-20T03:03:42;15.30;90.90
1367;DHT22;16877;48.810;9.282;2023-12-20T03:06:09;15.00;90.20
1367;DHT22;16877;48.810;9.282;2023-12-20T03:08:36;15.30;90.30
1367;DHT22;16877;48.810;9.282;2023-12-20T03:11:02;15.00;90.10
1367;DHT22;16877;48.810;9.282;2023-12-20T03:13:30;15.10;90.40
1367;DHT22;16877;48.810;9.282;2023-12-20T03:15:57;15.00;90.40
1367;DHT22;16877;48.810;9.282;2023-12-20T03:18:24;15.00;90.40
1367;DHT22;16877;48.810;9.282;2023-12-20T03:20:50;15.00;90.50
1367;DHT22;16877;48.810;9.282;2023-12-20T03:23:18;15.00;91.10
1367;DHT22;16877;48.810;9.282;2023-12-20T03:25:44;15.00;90.70
1367;DHT22;16877;48.810;9.282;2023-12-20T03:28:11;15.00;90.40
1367;DHT22;16877;48.810;9.282;2023-12-20T03:30:42;14.90;90.80
1367;DHT22;16877;48.810;9.282;2023-12-20T03:33:08;15.10;91.20
1367;DHT22;16877;48.810;9.282;2023-12-20T03:35:35;15.00;91.10
1367;DHT22;16877;48.810;9.282;2023-12-20T03:38:02;15.10;90.50
1367;DHT22;16877;48.810;9.282;2023-12-20T03:40:29;15.20;90.60
1367;DHT22;16877;48.810;9.282;2023-12-20T03:42:56;14.90;90.70
1367;DHT22;16877;48.810;9.282;2023-12-20T03:45:22;15.00;90.60
1367;DHT22;16877;48.810;9.282;2023-12-20T03:47:50;14.90;90.40
1367;DHT22;16877;48.810;9.282;2023-12-20T03:50:20;15.20;90.90
1367;DHT22;16877;48.810;9.282;2023-12-20T03:52:47;14.80;90.50
1367;DHT22;16877;48.810;9.282;2023-12-20T03:55:14;14.90;90.30
1367;DHT22;16877;48.810;9.282;2023-12-20T03:57:41;15.20;91.20
1367;DHT22;16877;48.810;9.282;2023-12-20T04:00:09;14.80;90.70
1367;DHT22;16877;48.810;9.282;2023-12-20T04:02:36;14.90;90.70
1367;DHT22;16877;48.810;9.282;2023-12-20T04:05:04;14.60;90.50
1367;DHT22;16877;48.810;9.282;2023-12-20T04:07:31;15.00;90.90
1367;DHT22;16877;48.810;9.282;2023-12-20T04:09:58;14.90;90.70
1367;DHT22;16877;48.810;9.282;2023-12-20T04:12:24;14.80;90.40
1367;DHT22;16877;48.810;9.282;2023-12-20T04:14:51;15.10;90.50
1367;DHT22;16877;48.810;9.282;2023-12-20T04:17:18;14.80;90.20
1367;DHT22;16877;48.810;9.282;2023-12-20T04:19:44;14.70;90.30
1367;DHT22;16877;48.810;9.282;2023-12-20T04:22:12;14.60;90.50
1367;DHT22;16877;48.810;9.282;2023-12-20T04:24:39;14.50;90.40
1367;DHT22;16877;48.810;9.282;2023-12-20T04:27:07;14.60;91.00
1367;DHT22;16877;48.810;9.282;2023-12-20T04:29:34;14.60;90.50
1367;DHT22;16877;48.810;9.282;2023-12-20T04:32:01;14.60;90.80
1367;DHT22;16877;48.810;9.282;2023-12-20T04:34:27;14.60;90.80
1367;DHT22;16877;48.810;9.282;2023-12-20T04:36:54;14.60;90.30
1367;DHT22;16877;48.810;9.282;2023-12-20T04:39:22;14.50;90.20
1367;DHT22;16877;48.810;9.282;2023-12-20T04:41:49;14.40;90.60
1367;DHT22;16877;48.810;9.282;2023-12-20T04:44:15;14.40;90.30
1367;DHT22;16877;48.810;9.282;2023-12-20T04:46:42;14.50;90.70
1367;DHT22;16877;48.810;9.282;2023-12-20T04:49:09;14.50;90.60
1367;DHT22;16877;48.810;9.282;2023-12-20T04:51:36;14.40;90.40
1367;DHT22;16877;48.810;9.282;2023-12-20T04:54:03;14.40;90.40
1367;DHT22;16877;48.810;9.282;2023-12-20T04:56:33;14.50;91.20
1367;DHT22;16877;48.810;9.282;2023-12-20T04:58:59;14.60;90.40
1367;DHT22;16877;48.810;9.282;2023-12-20T05:01:26;14.40;90.40
1367;DHT22;16877;48.810;9.282;2023-12-20T05:03:53;14.20;90.30
1367;DHT22;16877;48.810;9.282;2023-12-20T05:06:19;14.40;90.70
1367;DHT22;16877;48.810;9.282;2023-12-20T05:08:46;14.40;90.50
1367;DHT22;16877;48.810;9.282;2023-12-20T05:11:13;14.40;91.00
1367;DHT22;16877;48.810;9.282;2023-12-20T05:13:42;14.50;90.40
1367;DHT22;16877;48.810;9.282;2023-12-20T05:16:09;14.30;90.30
1367;DHT22;16877;48.810;9.282;2023-12-20T05:18:36;14.50;90.70
1367;DHT22;16877;48.810;9.282;2023-12-20T05:21:03;14.40;90.20
1367;DHT22;16877;48.810;9.282;2023-12-20T05:23:29;14.30;90.40
1367;DHT22;16877;48.810;9.282;2023-12-20T05:25:56;14.40;90.20
1367;DHT22;16877;48.810;9.282;2023-12-20T05:28:24;14.40;90.00
1367;DHT22;16877;48.810;9.282;2023-12-20T05:30:52;14.40;90.10
1367;DHT22;16877;48.810;9.282;2023-12-20T05:33:19;14.40;90.40
1367;DHT22;16877;48.810;9.282;2023-12-20T05:35:46;14.20;90.20
1367;DHT22;16877;48.810;9.282;2023-12-20T05:38:12;14.00;90.10
1367;DHT22;16877;48.810;9.282;2023-12-20T05:40:39;14.20;90.70
1367;DHT22;16877;48.810;9.282;2023-12-20T05:43:06;14.30;90.40
1367;DHT22;16877;48.810;9.282;2023-12-20T05:45:33;14.50;90.70
1367;DHT22;16877;48.810;9.282;2023-12-20T05:48:01;14.30;90.40
1367;DHT22;16877;48.810;9.282;2023-12-20T05:50:27;14.30;90.50
1367;DHT22;16877;48.810;9.282;2023-12-20T05:52:54;14.40;90.50
1367;DHT22;16877;48.810;9.282;2023-12-20T05:55:21;14.30;90.50
1367;DHT22;16877;48.810;9.282;2023-12-20T05:57:47;14.30;90.80
1367;DHT22;16877;48.810;9.282;2023-12-20T06:00:15;14.30;91.00
1367;DHT22;16877;48.810;9.282;2023-12-20T06:02:42;14.30;91.10
1367;DHT22;16877;48.810;9.282;2023-12-20T06:05:10;14.40;91.00
1367;DHT22;16877;48.810;9.282;2023-12-20T06:07:37;14.40;90.80
1367;DHT22;16877;48.810;9.282;2023-12-20T06:10:04;14.30;90.80
1367;DHT22;16877;48.810;9.282;2023-12-20T06:12:31;14.30;91.10
1367;DHT22;16877;48.810;9.282;2023-12-20T06:15:01;14.30;90.90
1367;DHT22;16877;48.810;9.282;2023-12-20T06:17:28;14.10;90.90
1367;DHT22;16877;48.810;9.282;2023-12-20T06:19:56;14.20;90.90
1367;DHT22;16877;48.810;9.282;2023-12-20T06:22:24;14.20;91.20
1367;DHT22;16877;48.810;9.282;2023-12-20T06:24:50;14.10;91.30
1367;DHT22;16877;48.810;9.282;2023-12-20T06:27:17;14.30;91.40
1367;DHT22;16877;48.810;9.282;2023-12-20T06:29:44;14.30;91.90
1367;DHT22;16877;48.810;9.282;2023-12-20T06:32:10;14.20;91.60
1367;DHT22;16877;48.810;9.282;2023-12-20T06:34:37;14.30;91.40
1367;DHT22;16877;48.810;9.282;2023-12-20T06:37:04;14.40;91.20
1367;DHT22;16877;48.810;9.282;2023-12-20T06:39:32;14.40;91.40
1367;DHT22;16877;48.810;9.282;2023-12-20T06:41:59;14.20;91.10
1367;DHT22;16877;48.810;9.282;2023-12-20T06:44:26;14.40;91.40
1367;DHT22;16877;48.810;9.282;2023-12-20T06:46:53;14.40;91.40
1367;DHT22;16877;48.810;9.282;2023-12-20T06:49:19;14.50;91.40
1367;DHT22;16877;48.810;9.282;2023-12-20T06:51:46;14.50;91.80
1367;DHT22;16877;48.810;9.282;2023-12-20T06:54:13;14.50;91.60
1367;DHT22;16877;48.810;9.282;2023-12-20T06:56:41;14.50;91.40
1367;DHT22;16877;48.810;9.282;2023-12-20T06:59:07;14.30;91.70
1367;DHT22;16877;48.810;9.282;2023-12-20T07:01:34;14.50;91.50
1367;DHT22;16877;48.810;9.282;2023-12-20T07:04:01;14.50;91.50
1367;DHT22;16877;48.810;9.282;2023-12-20T07:06:27;14.50;91.50
1367;DHT22;16877;48.810;9.282;2023-12-20T07:08:54;14.40;91.90
1367;DHT22;16877;48.810;9.282;2023-12-20T07:11:21;14.60;91.40
1367;DHT22;16877;48.810;9.282;2023-12-20T07:13:49;14.40;91.10
1367;DHT22;16877;48.810;9.282;2023-12-20T07:16:16;14.60;91.80
1367;DHT22;16877;48.810;9.282;2023-12-20T07:18:42;14.50;91.60
1367;DHT22;16877;48.810;9.282;2023-12-20T07:21:09;14.70;91.60
1367;DHT22;16877;48.810;9.282;2023-12-20T07:23:35;14.60;91.50
1367;DHT22;16877;48.810;9.282;2023-12-20T07:26:02;14.60;91.90
1367;DHT22;16877;48.810;9.282;2023-12-20T07:28:29;14.60;91.80
1367;DHT22;16877;48.810;9.282;2023-12-20T07:30:57;14.60;92.00
1367;DHT22;16877;48.810;9.282;2023-12-20T07:33:24;14.60;91.80
1367;DHT22;16877;48.810;9.282;2023-12-20T07:35:51;14.60;91.90
1367;DHT22;16877;48.810;9.282;2023-12-20T07:38:18;14.60;91.90
1367;DHT22;16877;48.810;9.282;2023-12-20T07:40:44;14.30;92.00
1367;DHT22;16877;48.810;9.282;2023-12-20T07:43:11;14.40;91.70
1367;DHT22;16877;48.810;9.282;2023-12-20T07:45:38;14.40;91.80
1367;DHT22;16877;48.810;9.282;2023-12-20T07:48:07;14.50;91.90
1367;DHT22;16877;48.810;9.282;2023-12-20T07:50:34;14.20;91.60
1367;DHT22;16877;48.810;9.282;2023-12-20T07:53:00;14.10;91.30
1367;DHT22;16877;48.810;9.282;2023-12-20T07:55:27;14.00;91.60
1367;DHT22;16877;48.810;9.282;2023-12-20T07:57:54;13.90;92.10
1367;DHT22;16877;48.810;9.282;2023-12-20T08:00:20;14.10;91.60
1367;DHT22;16877;48.810;9.282;2023-12-20T08:02:47;14.00;90.90
1367;DHT22;16877;48.810;9.282;2023-12-20T08:05:15;14.00;91.30
1367;DHT22;16877;48.810;9.282;2023-12-20T08:07:42;14.10;91.20
1367;DHT22;16877;48.810;9.282;2023-12-20T08:10:09;14.20;91.10
1367;DHT22;16877;48.810;9.282;2023-12-20T08:12:36;14.10;91.30
1367;DHT22;16877;48.810;9.282;2023-12-20T08:15:06;14.00;90.80
1367;DHT22;16877;48.810;9.282;2023-12-20T08:17:32;14.10;90.70
1367;DHT22;16877;48.810;9.282;2023-12-20T08:19:59;14.40;90.90
1367;DHT22;16877;48.810;9.282;2023-12-20T08:22:27;14.20;91.00
1367;DHT22;16877;48.810;9.282;2023-12-20T08:24:54;14.20;90.60
1367;DHT22;16877;48.810;9.282;2023-12-20T08:27:21;14.10;90.10
1367;DHT22;16877;48.810;9.282;2023-12-20T08:29:47;14.20;90.50
1367;DHT22;16877;48.810;9.282;2023-12-20T08:32:15;14.30;90.40
1367;DHT22;16877;48.810;9.282;2023-12-20T08:34:42;14.30;90.30
1367;DHT22;16877;48.810;9.282;2023-12-20T08:37:08;14.10;90.20
1367;DHT22;16877;48.810;9.282;2023-12-20T08:39:36;14.40;90.10
1367;DHT22;16877;48.810;9.282;2023-12-20T08:42:04;14.30;90.00
1367;DHT22;16877;48.810;9.282;2023-12-20T08:44:30;14.20;90.00
1367;DHT22;16877;48.810;9.282;2023-12-20T08:46:57;14.30;89.90
1367;DHT22;16877;48.810;9.282;2023-12-20T08:49:24;14.20;89.10
1367;DHT22;16877;48.810;9.282;2023-12-20T08:51:51;14.20;89.50
1367;DHT22;16877;48.810;9.282;2023-12-20T08:54:17;14.10;89.80
1367;DHT22;16877;48.810;9.282;2023-12-20T08:56:46;14.30;89.80
1367;DHT22;16877;48.810;9.282;2023-12-20T08:59:13;14.20;89.80
1367;DHT22;16877;48.810;9.282;2023-12-20T09:01:39;14.60;89.80
1367;DHT22;16877;48.810;9.282;2023-12-20T09:04:06;14.70;89.00
1367;DHT22;16877;48.810;9.282;2023-12-20T09:06:33;15.10;89.70
1367;DHT22;16877;48.810;9.282;2023-12-20T09:08:59;15.10;88.80
1367;DHT22;16877;48.810;9.282;2023-12-20T09:11:26;15.50;89.00
1367;DHT22;16877;48.810;9.282;2023-12-20T09:13:54;15.60;90.00
1367;DHT22;16877;48.810;9.282;2023-12-20T09:16:21;15.80;87.10
1367;DHT22;16877;48.810;9.282;2023-12-20T09:18:47;16.10;87.10
1367;DHT22;16877;48.810;9.282;2023-12-20T09:21:14;16.30;87.90
1367;DHT22;16877;48.810;9.282;2023-12-20T09:23:41;16.20;86.00
1367;DHT22;16877;48.810;9.282;2023-12-20T09:26:07;16.70;85.30
1367;DHT22;16877;48.810;9.282;2023-12-20T09:28:34;17.00;85.00
1367;DHT22;16877;48.810;9.282;2023-12-20T09:31:04;17.10;84.70
1367;DHT22;16877;48.810;9.282;2023-12-20T09:33:31;17.20;83.40
1367;DHT22;16877;48.810;9.282;2023-12-20T09:35:57;17.20;82.90
1367;DHT22;16877;48.810;9.282;2023-12-20T09:38:24;17.70;83.20
1367;DHT22;16877;48.810;9.282;2023-12-20T09:40:51;17.60;81.10
1367;DHT22;16877;48.810;9.282;2023-12-20T09:43:20;17.90;80.80
1367;DHT22;16877;48.810;9.282;2023-12-20T09:45:53;18.00;80.90
1367;DHT22;16877;48.810;9.282;2023-12-20T09:48:21;18.30;80.80
1367;DHT22;16877;48.810;9.282;2023-12-20T09:50:48;18.40;80.90
1367;DHT22;16877;48.810;9.282;2023-12-20T09:53:15;18.30;78.60
1367;DHT22;16877;48.810;9.282;2023-12-20T09:55:42;18.70;78.70
1367;DHT22;16877;48.810;9.282;2023-12-20T09:58:09;19.10;77.80
1367;DHT22;16877;48.810;9.282;2023-12-20T10:00:36;18.70;76.30
1367;DHT22;16877;48.810;9.282;2023-12-20T10:03:03;19.00;76.40
1367;DHT22;16877;48.810;9.282;2023-12-20T10:05:34;19.40;78.20
1367;DHT22;16877;48.810;9.282;2023-12-20T10:08:01;19.20;76.00
1367;DHT22;16877;48.810;9.282;2023-12-20T10:10:28;19.50;74.30
1367;DHT22;16877;48.810;9.282;2023-12-20T10:13:03;19.30;74.00
1367;DHT22;16877;48.810;9.282;2023-12-20T10:15:30;19.60;75.40
1367;DHT22;16877;48.810;9.282;2023-12-20T10:17:57;19.80;74.00
1367;DHT22;16877;48.810;9.282;2023-12-20T10:20:24;20.10;73.50
1367;DHT22;16877;48.810;9.282;2023-12-20T10:22:52;20.10;73.10
1367;DHT22;16877;48.810;9.282;2023-12-20T10:25:20;19.90;73.80
1367;DHT22;16877;48.810;9.282;2023-12-20T10:27:47;19.90;73.70
1367;DHT22;16877;48.810;9.282;2023-12-20T10:30:14;19.80;72.90
1367;DHT22;16877;48.810;9.282;2023-12-20T10:32:41;19.50;72.20
1367;DHT22;16877;48.810;9.282;2023-12-20T10:35:09;18.90;70.00
1367;DHT22;16877;48.810;9.282;2023-12-20T10:37:36;19.20;70.00
1367;DHT22;16877;48.810;9.282;2023-12-20T10:40:05;18.90;70.70
1367;DHT22;16877;48.810;9.282;2023-12-20T10:42:32;18.90;71.70
1367;DHT22;16877;48.810;9.282;2023-12-20T10:45:00;19.00;71.30
1367;DHT22;16877;48.810;9.282;2023-12-20T10:47:28;18.50;70.80
1367;DHT22;16877;48.810;9.282;2023-12-20T10:49:59;17.90;69.70
1367;DHT22;16877;48.810;9.282;2023-12-20T10:52:27;17.80;70.30
1367;DHT22;16877;48.810;9.282;2023-12-20T10:54:55;17.80;71.50
1367;DHT22;16877;48.810;9.282;2023-12-20T10:57:27;17.70;72.70
1367;DHT22;16877;48.810;9.282;2023-12-20T10:59:54;17.70;72.20
1367;DHT22;16877;48.810;9.282;2023-12-20T11:02:22;17.30;72.00
1367;DHT22;16877;48.810;9.282;2023-12-20T11:04:53;17.60;73.20
1367;DHT22;16877;48.810;9.282;2023-12-20T11:07:25;17.40;72.20
1367;DHT22;16877;48.810;9.282;2023-12-20T11:09:59;17.10;73.30
1367;DHT22;16877;48.810;9.282;2023-12-20T11:12:35;17.30;73.00
1367;DHT22;16877;48.810;9.282;2023-12-20T11:15:05;17.20;72.60
1367;DHT22;16877;48.810;9.282;2023-12-20T11:17:33;17.20;73.40
1367;DHT22;16877;48.810;9.282;2023-12-20T11:20:07;17.00;72.20
1367;DHT22;16877;48.810;9.282;2023-12-20T11:22:36;17.10;72.70
1367;DHT22;16877;48.810;9.282;2023-12-20T11:25:05;16.70;71.30
1367;DHT22;16877;48.810;9.282;2023-12-20T11:27:35;16.70;72.40
1367;DHT22;16877;48.810;9.282;2023-12-20T11:30:04;16.60;71.80
1367;DHT22;16877;48.810;9.282;2023-12-20T11:32:34;16.50;72.90
1367;DHT22;16877;48.810;9.282;2023-12-20T11:35:16;16.70;72.90
1367;DHT22;16877;48.810;9.282;2023-12-20T11:37:43;16.10;72.00
1367;DHT22;16877;48.810;9.282;2023-12-20T11:40:14;16.60;94.70
1367;DHT22;16877;48.810;9.282;2023-12-20T11:42:43;17.60;95.40
1367;DHT22;16877;48.810;9.282;2023-12-20T11:45:11;18.10;93.50
1367;DHT22;16877;48.810;9.282;2023-12-20T11:47:40;17.90;82.80
1367;DHT22;16877;48.810;9.282;2023-12-20T11:50:08;17.70;76.80
1367;DHT22;16877;48.810;9.282;2023-12-20T11:52:35;17.20;73.70
1367;DHT22;16877;48.810;9.282;2023-12-20T11:55:02;16.70;73.00
1367;DHT22;16877;48.810;9.282;2023-12-20T11:57:29;16.60;72.80
1367;DHT22;16877;48.810;9.282;2023-12-20T11:59:57;16.20;73.00
1367;DHT22;16877;48.810;9.282;2023-12-20T12:02:24;16.20;73.20
1367;DHT22;16877;48.810;9.282;2023-12-20T12:04:51;16.50;74.50
1367;DHT22;16877;48.810;9.282;2023-12-20T12:07:17;16.00;74.50
1367;DHT22;16877;48.810;9.282;2023-12-20T12:09:44;15.70;73.20
1367;DHT22;16877;48.810;9.282;2023-12-20T12:12:12;15.70;73.50
1367;DHT22;16877;48.810;9.282;2023-12-20T12:14:39;15.60;74.10
1367;DHT22;16877;48.810;9.282;2023-12-20T12:17:11;15.50;73.60
1367;DHT22;16877;48.810;9.282;2023-12-20T12:19:38;15.60;74.30
1367;DHT22;16877;48.810;9.282;2023-12-20T12:22:05;15.50;74.10
1367;DHT22;16877;48.810;9.282;2023-12-20T12:24:34;15.70;74.30
1367;DHT22;16877;48.810;9.282;2023-12-20T12:27:00;15.80;75.30
1367;DHT22;16877;48.810;9.282;2023-12-20T12:29:27;15.70;73.90
1367;DHT22;16877;48.810;9.282;2023-12-20T12:31:54;15.40;75.00
1367;DHT22;16877;48.810;9.282;2023-12-20T12:34:22;15.30;73.80
1367;DHT22;16877;48.810;9.282;2023-12-20T12:36:49;15.50;74.40
1367;DHT22;16877;48.810;9.282;2023-12-20T12:39:17;15.50;74.10
1367;DHT22;16877;48.810;9.282;2023-12-20T12:41:44;15.60;74.50
1367;DHT22;16877;48.810;9.282;2023-12-20T12:44:11;15.60;75.30
1367;DHT22;16877;48.810;9.282;2023-12-20T12:46:38;16.10;75.10
1367;DHT22;16877;48.810;9.282;2023-12-20T12:49:04;16.60;74.50
1367;DHT22;16877;48.810;9.282;2023-12-20T12:51:32;16.60;73.20
1367;DHT22;16877;48.810;9.282;2023-12-20T12:53:59;16.80;73.40
1367;DHT22;16877;48.810;9.282;2023-12-20T12:56:26;17.10;73.20
1367;DHT22;16877;48.810;9.282;2023-12-20T12:58:52;16.90;72.60
1367;DHT22;16877;48.810;9.282;2023-12-20T13:01:19;16.70;72.30
1367;DHT22;16877;48.810;9.282;2023-12-20T13:03:46;16.80;72.40
1367;DHT22;16877;48.810;9.282;2023-12-20T13:06:12;16.80;73.40
1367;DHT22;16877;48.810;9.282;2023-12-20T13:08:40;16.70;73.20
1367;DHT22;16877;48.810;9.282;2023-12-20T13:11:07;16.70;72.30
1367;DHT22;16877;48.810;9.282;2023-12-20T13:13:34;16.10;71.90
1367;DHT22;16877;48.810;9.282;2023-12-20T13:16:01;16.50;73.20
1367;DHT22;16877;48.810;9.282;2023-12-20T13:18:27;16.20;73.10
1367;DHT22;16877;48.810;9.282;2023-12-20T13:20:54;16.10;72.90
1367;DHT22;16877;48.810;9.282;2023-12-20T13:23:21;16.10;72.80
1367;DHT22;16877;48.810;9.282;2023-12-20T13:25:49;16.20;73.30
1367;DHT22;16877;48.810;9.282;2023-12-20T13:28:16;16.10;73.40
1367;DHT22;16877;48.810;9.282;2023-12-20T13:30:42;16.10;73.30
1367;DHT22;16877;48.810;9.282;2023-12-20T13:33:09;15.90;72.90
1367;DHT22;16877;48.810;9.282;2023-12-20T13:35:37;16.10;72.90
1367;DHT22;16877;48.810;9.282;2023-12-20T13:38:04;16.10;74.20
1367;DHT22;16877;48.810;9.282;2023-12-20T13:40:33;16.10;72.60
1367;DHT22;16877;48.810;9.282;2023-12-20T13:43:01;16.00;72.50
1367;DHT22;16877;48.810;9.282;2023-12-20T13:45:28;16.20;73.30
1367;DHT22;16877;48.810;9.282;2023-12-20T13:47:55;16.20;74.70
1367;DHT22;16877;48.810;9.282;2023-12-20T13:50:22;15.50;72.40
1367;DHT22;16877;48.810;9.282;2023-12-20T13:52:49;15.60;72.60
1367;DHT22;16877;48.810;9.282;2023-12-20T13:55:15;15.40;72.90
1367;DHT22;16877;48.810;9.282;2023-12-20T13:57:42;15.50;73.70
1367;DHT22;16877;48.810;9.282;2023-12-20T14:00:12;15.50;73.30
1367;DHT22;16877;48.810;9.282;2023-12-20T14:02:40;15.60;75.00
1367;DHT22;16877;48.810;9.282;2023-12-20T14:05:08;15.40;74.00
1367;DHT22;16877;48.810;9.282;2023-12-20T14:07:35;15.60;75.50
1367;DHT22;16877;48.810;9.282;2023-12-20T14:10:02;15.10;75.50
1367;DHT22;16877;48.810;9.282;2023-12-20T14:12:29;15.30;75.50
1367;DHT22;16877;48.810;9.282;2023-12-20T14:14:57;15.00;76.60
1367;DHT22;16877;48.810;9.282;2023-12-20T14:17:25;15.20;76.40
1367;DHT22;16877;48.810;9.282;2023-12-20T14:19:52;15.20;75.70
1367;DHT22;16877;48.810;9.282;2023-12-20T14:22:20;15.00;76.10
1367;DHT22;16877;48.810;9.282;2023-12-20T14:24:46;14.80;76.10
1367;DHT22;16877;48.810;9.282;2023-12-20T14:27:14;15.00;76.80
1367;DHT22;16877;48.810;9.282;2023-12-20T14:29:40;15.00;76.90
1367;DHT22;16877;48.810;9.282;2023-12-20T14:32:07;14.90;77.60
1367;DHT22;16877;48.810;9.282;2023-12-20T14:34:35;14.80;77.70
1367;DHT22;16877;48.810;9.282;2023-12-20T14:37:03;14.80;77.50
1367;DHT22;16877;48.810;9.282;2023-12-20T14:39:30;14.80;78.10
1367;DHT22;16877;48.810;9.282;2023-12-20T14:41:57;14.60;78.00
1367;DHT22;16877;48.810;9.282;2023-12-20T14:44:23;15.00;78.90
1367;DHT22;16877;48.810;9.282;2023-12-20T14:46:50;14.90;79.10
1367;DHT22;16877;48.810;9.282;2023-12-20T14:49:17;14.90;79.00
1367;DHT22;16877;48.810;9.282;2023-12-20T14:51:45;14.70;79.40
1367;DHT22;16877;48.810;9.282;2023-12-20T14:54:13;14.80;78.40
1367;DHT22;16877;48.810;9.282;2023-12-20T14:56:40;14.60;78.30
1367;DHT22;16877;48.810;9.282;2023-12-20T14:59:06;14.60;78.30
1367;DHT22;16877;48.810;9.282;2023-12-20T15:01:33;14.70;78.70
1367;DHT22;16877;48.810;9.282;2023-12-20T15:04:00;14.50;79.00
1367;DHT22;16877;48.810;9.282;2023-12-20T15:06:27;14.60;79.00
1367;DHT22;16877;48.810;9.282;2023-12-20T15:08:55;14.70;80.20
1367;DHT22;16877;48.810;9.282;2023-12-20T15:11:21;14.70;80.40
1367;DHT22;16877;48.810;9.282;2023-12-20T15:13:48;14.90;80.40
1367;DHT22;16877;48.810;9.282;2023-12-20T15:16:20;14.60;80.50
1367;DHT22;16877;48.810;9.282;2023-12-20T15:18:47;14.50;80.40
1367;DHT22;16877;48.810;9.282;2023-12-20T15:21:14;14.40;81.50
1367;DHT22;16877;48.810;9.282;2023-12-20T15:23:41;14.60;81.30
1367;DHT22;16877;48.810;9.282;2023-12-20T15:26:19;14.40;81.20
1367;DHT22;16877;48.810;9.282;2023-12-20T15:28:46;14.50;81.40
1367;DHT22;16877;48.810;9.282;2023-12-20T15:31:12;14.30;81.60
1367;DHT22;16877;48.810;9.282;2023-12-20T15:33:39;14.30;81.30
1367;DHT22;16877;48.810;9.282;2023-12-20T15:36:06;14.40;81.60
1367;DHT22;16877;48.810;9.282;2023-12-20T15:38:33;14.20;81.70
1367;DHT22;16877;48.810;9.282;2023-12-20T15:41:01;14.00;81.30
1367;DHT22;16877;48.810;9.282;2023-12-20T15:43:29;14.20;81.30
1367;DHT22;16877;48.810;9.282;2023-12-20T15:45:56;14.20;82.10